Terminal Aerodrome Forecast
Issued by NWS Bismarck, ND

Home | Current Version | Previous Version | Graphics & Text | Print | Product List | Glossary Off
Versions: 1 2 3 4 5 6 7 8 9 10 11 12 13 14 15 16 17 18 19 20

000
FTUS43 KBIS 262300
TAFBIS
TAF
KBIS 262320Z 2700/2724 09004KT P6SM SCT050
     FM270500 13005KT P6SM BKN120
     FM271000 15009KT P6SM BKN050
     FM271200 16010KT 1SM -SN OVC020
     FM271700 18011KT P6SM OVC030
     FM272300 32008KT P6SM BKN040=

USA.gov is the U.S. government's official web portal to all federal, state and local government web resources and services.